Terminal Aerodrome Forecast
Issued by NWS

Home | Current Version | Previous Version | Text Only | Print | Product List | Glossary On
Versions: 1 2 3 4 5 6 7 8 9 10 11 12 13 14 15 16 17 18 19 20 21
000
FTUS43 KLSX 270500 CCA
TAFUIN
TAF COR
KUIN 270525Z 2706/2806 19011KT P6SM OVC020
     FM270900 20010KT P6SM OVC015
     FM271400 27014KT P6SM OVC015
     FM272000 30010KT P6SM OVC040
     FM280400 30008KT P6SM SCT060=

USA.gov is the U.S. government's official web portal to all federal, state and local government web resources and services.